createdAt,value
2019-04-29T00:00:35.454Z,101404.14
2019-04-29T00:03:06.715Z,101404.10
2019-04-29T00:05:36.146Z,101406.67
2019-04-29T00:08:05.652Z,101406.22
2019-04-29T00:10:35.278Z,101409.77
2019-04-29T00:13:04.784Z,101406.22
2019-04-29T00:15:41.818Z,101415.05
2019-04-29T00:18:16.155Z,101409.31
2019-04-29T00:20:48.857Z,101412.78
2019-04-29T00:23:18.382Z,101408.86
2019-04-29T00:25:47.865Z,101406.70
2019-04-29T00:28:17.771Z,101408.41
2019-04-29T00:30:47.293Z,101411.05
2019-04-29T00:33:16.887Z,101412.83
2019-04-29T00:35:46.408Z,101406.67
2019-04-29T00:38:29.571Z,101404.06
2019-04-29T00:41:09.797Z,101408.41
2019-04-29T00:43:49.764Z,101407.84
2019-04-29T00:46:19.308Z,101405.00
2019-04-29T00:48:48.854Z,101408.47
2019-04-29T00:51:19.362Z,101411.95
2019-04-29T00:53:50.478Z,101410.17
2019-04-29T00:56:19.938Z,101404.28
2019-04-29T00:58:49.410Z,101402.42
2019-04-29T01:01:20.482Z,101401.06
2019-04-29T01:03:49.943Z,101396.23
2019-04-29T01:06:19.415Z,101402.02
2019-04-29T01:08:49.078Z,101403.82
2019-04-29T01:11:18.619Z,101400.31
2019-04-29T01:13:48.079Z,101404.73
2019-04-29T01:16:17.818Z,101402.95
2019-04-29T01:18:47.416Z,101409.59
2019-04-29T01:21:16.921Z,101406.46
2019-04-29T01:23:46.428Z,101401.06
2019-04-29T01:26:17.502Z,101407.21
2019-04-29T01:28:49.510Z,101416.87
2019-04-29T01:31:21.679Z,101419.09
2019-04-29T01:33:52.777Z,101414.19
2019-04-29T01:36:23.859Z,101412.34
2019-04-29T01:38:54.950Z,101414.48
2019-04-29T01:41:38.338Z,101409.61
2019-04-29T01:44:09.339Z,101404.25
2019-04-29T01:46:38.777Z,101400.63
2019-04-29T01:49:08.241Z,101401.87
2019-04-29T01:51:37.669Z,101401.03
2019-04-29T01:54:07.157Z,101399.63
2019-04-29T01:56:36.592Z,101399.55
2019-04-29T01:59:06.046Z,101402.69
2019-04-29T02:01:35.593Z,101411.93
2019-04-29T02:04:05.090Z,101405.04
2019-04-29T02:06:34.558Z,101401.53
2019-04-29T02:09:06.448Z,101400.70
2019-04-29T02:11:36.081Z,101403.34
2019-04-29T02:14:05.695Z,101405.91
2019-04-29T02:16:35.163Z,101407.68
2019-04-29T02:19:04.595Z,101401.08
2019-04-29T02:21:34.027Z,101400.17
2019-04-29T02:24:05.503Z,101395.72
2019-04-29T02:26:34.943Z,101397.45
2019-04-29T02:29:04.689Z,101395.22
2019-04-29T02:31:41.492Z,101391.80
2019-04-29T02:34:11.041Z,101392.21
2019-04-29T02:36:40.538Z,101397.41
2019-04-29T02:39:25.265Z,101393.45
2019-04-29T02:42:05.675Z,101388.12
2019-04-29T02:44:35.159Z,101388.95
2019-04-29T02:47:05.083Z,101384.05
2019-04-29T02:49:34.551Z,101390.61
2019-04-29T02:52:04.060Z,101386.16
2019-04-29T02:54:33.551Z,101394.81
2019-04-29T02:57:16.617Z,101388.71
2019-04-29T02:59:50.382Z,101386.19
2019-04-29T03:02:27.300Z,101382.31
2019-04-29T03:05:10.675Z,101377.94
2019-04-29T03:07:40.226Z,101383.27
2019-04-29T03:10:10.109Z,101382.89
2019-04-29T03:12:40.372Z,101385.56
2019-04-29T03:15:10.102Z,101383.80
2019-04-29T03:17:39.652Z,101374.92
2019-04-29T03:20:23.109Z,101372.66
2019-04-29T03:22:54.219Z,101377.37
2019-04-29T03:25:23.826Z,101374.52
2019-04-29T03:27:53.259Z,101369.13
2019-04-29T03:30:22.721Z,101369.49
2019-04-29T03:32:52.267Z,101373.45
2019-04-29T03:35:21.760Z,101376.01
2019-04-29T03:37:51.193Z,101371.06
2019-04-29T03:40:20.649Z,101371.47
2019-04-29T03:42:50.112Z,101371.06
2019-04-29T03:45:19.601Z,101359.64
2019-04-29T03:47:49.322Z,101357.05
2019-04-29T03:50:18.759Z,101353.38
2019-04-29T03:52:48.219Z,101354.28
2019-04-29T03:55:17.758Z,101353.00
2019-04-29T03:57:47.194Z,101353.09
2019-04-29T04:00:18.137Z,101352.25
2019-04-29T04:02:49.222Z,101353.24
2019-04-29T04:05:23.052Z,101361.78
2019-04-29T04:08:00.093Z,101358.61
2019-04-29T04:10:29.531Z,101360.62
2019-04-29T04:12:58.997Z,101367.27
2019-04-29T04:15:28.459Z,101365.24
2019-04-29T04:18:02.488Z,101364.95
2019-04-29T04:20:31.956Z,101368.98
2019-04-29T04:23:01.471Z,101377.08
2019-04-29T04:25:31.041Z,101370.84
2019-04-29T04:28:00.494Z,101366.72
2019-04-29T04:30:29.955Z,101366.19
2019-04-29T04:32:59.665Z,101370.64
2019-04-29T04:35:29.297Z,101367.59
2019-04-29T04:37:58.774Z,101373.86
2019-04-29T04:40:38.773Z,101377.45
2019-04-29T04:43:08.257Z,101373.64
2019-04-29T04:45:37.764Z,101367.50
2019-04-29T04:48:07.287Z,101365.84
2019-04-29T04:50:36.776Z,101373.44
2019-04-29T04:53:07.261Z,101373.17
2019-04-29T04:55:38.368Z,101373.38
2019-04-29T04:58:07.825Z,101382.47
2019-04-29T05:00:38.044Z,101388.52
2019-04-29T05:03:07.478Z,101384.92
2019-04-29T05:05:36.947Z,101384.06
2019-04-29T05:08:06.403Z,101389.30
2019-04-29T05:10:35.894Z,101384.21
2019-04-29T05:13:05.321Z,101385.72
2019-04-29T05:15:34.942Z,101387.83
2019-04-29T05:18:05.444Z,101387.11
2019-04-29T05:20:34.983Z,101390.31
2019-04-29T05:23:04.915Z,101397.97
2019-04-29T05:25:35.090Z,101391.06
2019-04-29T05:28:05.174Z,101396.14
2019-04-29T05:30:34.612Z,101389.05
2019-04-29T05:33:04.397Z,101402.41
2019-04-29T05:35:35.483Z,101403.59
2019-04-29T05:38:06.607Z,101404.98
2019-04-29T05:40:40.270Z,101403.59
2019-04-29T05:43:11.455Z,101405.37
2019-04-29T05:45:46.314Z,101395.45
2019-04-29T05:48:18.280Z,101398.86
2019-04-29T05:50:56.317Z,101403.00
2019-04-29T05:53:27.431Z,101401.57
2019-04-29T05:55:56.922Z,101404.78
2019-04-29T05:58:26.707Z,101398.83
2019-04-29T06:01:00.536Z,101394.61
2019-04-29T06:03:33.640Z,101399.59
2019-04-29T06:06:01.174Z,101402.23
2019-04-29T06:08:34.610Z,101397.08
2019-04-29T06:11:01.817Z,101390.14
2019-04-29T06:13:31.295Z,101393.97
2019-04-29T06:16:00.730Z,101396.09
2019-04-29T06:18:30.204Z,101394.35
2019-04-29T06:21:08.765Z,101398.09
2019-04-29T06:23:30.897Z,101400.41
2019-04-29T06:26:00.458Z,101392.24
2019-04-29T06:28:29.949Z,101394.23
2019-04-29T06:30:59.686Z,101392.91
2019-04-29T06:33:30.986Z,101393.69
2019-04-29T06:36:00.574Z,101392.33
2019-04-29T06:38:30.186Z,101393.41
2019-04-29T06:40:59.635Z,101396.38
2019-04-29T06:43:30.702Z,101394.80
2019-04-29T06:46:00.383Z,101402.05
2019-04-29T06:48:29.865Z,101398.38
2019-04-29T06:50:59.330Z,101400.09
2019-04-29T06:53:28.827Z,101395.28
2019-04-29T06:55:58.363Z,101396.93
2019-04-29T06:58:27.832Z,101398.77
2019-04-29T07:01:00.989Z,101398.09
2019-04-29T07:03:28.438Z,101400.13
2019-04-29T07:05:57.916Z,101395.89
2019-04-29T07:08:27.467Z,101401.47
2019-04-29T07:11:01.045Z,101393.39
2019-04-29T07:13:28.158Z,101383.92
2019-04-29T07:15:57.626Z,101388.60
2019-04-29T07:18:27.172Z,101390.25
2019-04-29T07:20:56.652Z,101386.70
2019-04-29T07:23:26.153Z,101383.70
2019-04-29T07:25:55.696Z,101380.61
2019-04-29T07:28:25.129Z,101376.41
2019-04-29T07:31:03.062Z,101376.77
2019-04-29T07:33:25.744Z,101375.53
2019-04-29T07:35:55.214Z,101368.47
2019-04-29T07:38:24.695Z,101375.47
2019-04-29T07:40:54.189Z,101376.28
2019-04-29T07:43:23.607Z,101376.53
2019-04-29T07:45:58.945Z,101368.75
2019-04-29T07:48:25.896Z,101369.06
2019-04-29T07:50:55.402Z,101371.99
2019-04-29T07:53:34.539Z,101367.27
2019-04-29T07:55:55.972Z,101372.50
2019-04-29T07:58:27.369Z,101373.16
2019-04-29T08:00:56.566Z,101382.76
2019-04-29T08:03:26.029Z,101377.38
2019-04-29T08:05:55.507Z,101375.86
2019-04-29T08:08:25.289Z,101377.86
2019-04-29T08:10:56.871Z,101390.16
2019-04-29T08:13:28.154Z,101381.98
2019-04-29T08:15:57.704Z,101382.69
2019-04-29T08:18:27.149Z,101379.17
2019-04-29T08:20:57.631Z,101382.31
2019-04-29T08:23:27.076Z,101381.50
2019-04-29T08:25:57.390Z,101384.80
2019-04-29T08:28:27.736Z,101383.28
2019-04-29T08:30:57.340Z,101390.59
2019-04-29T08:33:26.773Z,101380.18
2019-04-29T08:35:56.258Z,101375.53
2019-04-29T08:38:25.697Z,101383.70
2019-04-29T08:40:55.318Z,101384.67
2019-04-29T08:43:26.437Z,101378.89
2019-04-29T08:46:03.537Z,101386.57
2019-04-29T08:48:32.985Z,101385.09
2019-04-29T08:51:02.461Z,101386.77
2019-04-29T08:53:31.908Z,101387.22
2019-04-29T08:56:01.459Z,101385.83
2019-04-29T08:58:30.906Z,101382.17
2019-04-29T09:01:00.382Z,101384.75
2019-04-29T09:03:40.036Z,101372.36
2019-04-29T09:06:05.481Z,101379.78
2019-04-29T09:08:33.172Z,101385.22
2019-04-29T09:11:03.542Z,101385.60
2019-04-29T09:13:32.985Z,101383.30
2019-04-29T09:16:02.471Z,101384.34
2019-04-29T09:18:31.922Z,101387.48
2019-04-29T09:21:01.360Z,101392.63
2019-04-29T09:23:32.649Z,101397.88
2019-04-29T09:26:03.741Z,101396.39
2019-04-29T09:28:33.264Z,101398.33
2019-04-29T09:31:03.762Z,101404.24
2019-04-29T09:33:34.208Z,101399.83
2019-04-29T09:36:03.675Z,101394.67
2019-04-29T09:38:36.813Z,101400.34
2019-04-29T09:41:11.748Z,101384.72
2019-04-29T09:44:03.581Z,101388.38
2019-04-29T09:46:34.499Z,101384.03
2019-04-29T09:49:03.622Z,101381.39
2019-04-29T09:51:33.172Z,101371.78
2019-04-29T09:54:02.624Z,101372.75
2019-04-29T09:56:34.654Z,101370.34
2019-04-29T09:59:23.899Z,101374.50
2019-04-29T10:01:56.259Z,101372.08
2019-04-29T10:04:40.016Z,101367.59
2019-04-29T10:07:11.519Z,101365.02
2019-04-29T10:09:41.135Z,101356.02
2019-04-29T10:12:10.678Z,101351.11
2019-04-29T10:14:40.122Z,101343.30
2019-04-29T10:17:15.426Z,101329.48
2019-04-29T10:19:49.638Z,101325.52
2019-04-29T10:22:19.115Z,101330.00
2019-04-29T10:24:48.553Z,101330.84
2019-04-29T10:27:18.052Z,101336.30
2019-04-29T10:29:50.778Z,101341.94
2019-04-29T10:32:20.761Z,101346.09
2019-04-29T10:34:50.318Z,101348.13
2019-04-29T10:37:23.768Z,101356.26
2019-04-29T10:40:10.951Z,101352.74
2019-04-29T10:42:40.462Z,101352.84
2019-04-29T10:45:12.716Z,101345.00
2019-04-29T10:47:46.492Z,101332.69
2019-04-29T10:50:17.750Z,101320.03
2019-04-29T10:52:47.357Z,101318.26
2019-04-29T10:55:17.698Z,101310.84
2019-04-29T10:57:49.761Z,101311.96
2019-04-29T11:00:32.040Z,101305.08
2019-04-29T11:03:01.635Z,101306.97
2019-04-29T11:05:34.103Z,101308.03
2019-04-29T11:08:09.066Z,101307.09
2019-04-29T11:10:38.550Z,101300.02
2019-04-29T11:13:08.402Z,101301.28
2019-04-29T11:15:37.983Z,101292.07
2019-04-29T11:18:07.992Z,101297.37
2019-04-29T11:20:37.509Z,101287.45
2019-04-29T11:23:16.442Z,101289.11
2019-04-29T11:25:50.819Z,101289.02
2019-04-29T11:28:17.588Z,101288.23
2019-04-29T11:30:49.592Z,101284.66
2019-04-29T11:33:35.529Z,101280.23
2019-04-29T11:36:06.111Z,101264.61
2019-04-29T11:38:38.368Z,101269.54
2019-04-29T11:41:12.233Z,101261.93
2019-04-29T11:43:39.797Z,101270.78
2019-04-29T11:46:14.468Z,101268.89
2019-04-29T11:48:41.532Z,101259.48
2019-04-29T11:51:34.258Z,101269.76
2019-04-29T11:54:00.738Z,101271.42
2019-04-29T11:56:30.410Z,101260.30
2019-04-29T11:59:18.018Z,101269.12
2019-04-29T12:01:55.389Z,101266.80
2019-04-29T12:04:33.521Z,101263.96
2019-04-29T12:07:00.681Z,101267.84
2019-04-29T12:09:32.220Z,101265.34
2019-04-29T12:12:01.972Z,101259.31
2019-04-29T12:14:42.100Z,101258.89
2019-04-29T12:17:21.962Z,101254.47
2019-04-29T12:19:55.583Z,101265.48
2019-04-29T12:22:30.152Z,101266.18
2019-04-29T12:24:56.213Z,101261.39
2019-04-29T12:27:28.816Z,101258.38
2019-04-29T12:29:59.354Z,101264.27
2019-04-29T12:32:38.634Z,101253.96
2019-04-29T12:35:09.841Z,101255.77
2019-04-29T12:37:40.927Z,101251.22
2019-04-29T12:40:14.524Z,101249.66
2019-04-29T12:42:55.340Z,101245.09
2019-04-29T12:45:26.603Z,101242.54
2019-04-29T12:47:56.181Z,101244.34
2019-04-29T12:50:25.758Z,101234.59
2019-04-29T12:52:55.188Z,101234.33
2019-04-29T12:55:43.503Z,101231.18
2019-04-29T12:57:57.478Z,101229.41
2019-04-29T13:00:28.641Z,101227.39
2019-04-29T13:03:02.826Z,101222.09
2019-04-29T13:05:39.791Z,101224.34
2019-04-29T13:08:10.879Z,101231.39
2019-04-29T13:10:44.091Z,101222.44
2019-04-29T13:13:15.638Z,101240.05
2019-04-29T13:15:55.812Z,101229.01
2019-04-29T13:18:26.997Z,101230.80
2019-04-29T13:21:09.465Z,101228.87
2019-04-29T13:23:34.834Z,101235.94
2019-04-29T13:26:00.416Z,101228.92
2019-04-29T13:28:34.169Z,101233.95
2019-04-29T13:31:03.517Z,101228.69
2019-04-29T13:33:34.211Z,101224.39
2019-04-29T13:36:04.303Z,101216.21
2019-04-29T13:38:33.742Z,101211.07
2019-04-29T13:41:13.810Z,101210.72
2019-04-29T13:43:35.584Z,101204.67
2019-04-29T13:46:16.528Z,101197.84
2019-04-29T13:49:06.134Z,101197.83
2019-04-29T13:51:35.824Z,101198.70
2019-04-29T13:54:06.235Z,101192.10
2019-04-29T13:56:54.268Z,101189.90
2019-04-29T13:59:10.610Z,101191.27
2019-04-29T14:01:58.604Z,101190.55
2019-04-29T14:04:24.405Z,101194.62
2019-04-29T14:06:56.729Z,101201.39
2019-04-29T14:09:19.040Z,101186.73
2019-04-29T14:12:01.011Z,101191.55
2019-04-29T14:14:22.672Z,101186.61
2019-04-29T14:17:06.876Z,101186.21
2019-04-29T14:19:40.265Z,101184.91
2019-04-29T14:21:53.216Z,101186.29
2019-04-29T14:24:22.790Z,101182.91
2019-04-29T14:26:52.303Z,101176.88
2019-04-29T14:29:22.999Z,101171.20
2019-04-29T14:31:59.120Z,101175.30
2019-04-29T14:34:36.753Z,101169.60
2019-04-29T14:37:25.377Z,101173.03
2019-04-29T14:39:37.965Z,101178.80
2019-04-29T14:42:18.137Z,101172.68
2019-04-29T14:44:49.285Z,101169.66
2019-04-29T14:47:26.363Z,101175.47
2019-04-29T14:49:57.441Z,101173.23
2019-04-29T14:52:26.976Z,101174.17
2019-04-29T14:54:56.428Z,101172.01
2019-04-29T14:57:25.906Z,101170.29
2019-04-29T14:59:55.554Z,101171.19
2019-04-29T15:02:27.348Z,101161.06
2019-04-29T15:04:56.848Z,101165.14
2019-04-29T15:07:28.985Z,101170.95
2019-04-29T15:09:58.773Z,101167.02
2019-04-29T15:12:51.145Z,101172.44
2019-04-29T15:15:12.612Z,101168.16
2019-04-29T15:17:46.715Z,101160.17
2019-04-29T15:20:25.080Z,101161.57
2019-04-29T15:22:55.739Z,101164.84
2019-04-29T15:25:25.223Z,101159.09
2019-04-29T15:27:54.664Z,101164.53
2019-04-29T15:30:24.179Z,101162.13
2019-04-29T15:32:58.038Z,101159.56
2019-04-29T15:35:25.577Z,101158.70
2019-04-29T15:37:55.107Z,101156.09
2019-04-29T15:40:26.650Z,101159.70
2019-04-29T15:42:56.726Z,101160.69
2019-04-29T15:45:28.107Z,101155.87
2019-04-29T15:47:57.415Z,101152.01
2019-04-29T15:50:26.853Z,101153.08
2019-04-29T15:52:58.690Z,101150.52
2019-04-29T15:55:27.544Z,101146.23
2019-04-29T15:57:57.045Z,101144.00
2019-04-29T16:00:26.852Z,101144.84
2019-04-29T16:02:56.895Z,101149.32
2019-04-29T16:07:22.021Z,101144.59
2019-04-29T16:09:58.993Z,101145.84
2019-04-29T16:12:36.063Z,101139.66
2019-04-29T16:15:07.187Z,101142.73
2019-04-29T16:17:37.972Z,101148.01
2019-04-29T16:20:08.225Z,101138.42
2019-04-29T16:25:11.223Z,101138.53
2019-04-29T16:27:41.044Z,101135.76
2019-04-29T16:30:18.166Z,101140.17
2019-04-29T16:32:43.461Z,101134.86
2019-04-29T16:35:17.866Z,101133.22
2019-04-29T16:37:44.337Z,101132.89
2019-04-29T16:40:14.879Z,101133.75
2019-04-29T16:42:49.905Z,101131.94
2019-04-29T16:45:21.020Z,101130.02
2019-04-29T16:47:50.613Z,101129.80
2019-04-29T16:50:20.191Z,101131.48
2019-04-29T16:52:50.043Z,101130.13
2019-04-29T16:55:19.619Z,101137.19
2019-04-29T16:57:49.068Z,101137.12
2019-04-29T17:00:20.916Z,101134.48
2019-04-29T17:02:50.425Z,101135.95
2019-04-29T17:05:19.905Z,101132.88
2019-04-29T17:07:49.398Z,101133.38
2019-04-29T17:10:20.631Z,101133.38
2019-04-29T17:12:51.264Z,101139.59
2019-04-29T17:15:25.415Z,101140.45
2019-04-29T17:17:51.957Z,101138.68
2019-04-29T17:20:22.178Z,101142.11
2019-04-29T17:22:51.649Z,101147.37
2019-04-29T17:25:21.093Z,101146.86
2019-04-29T17:27:52.547Z,101153.08
2019-04-29T17:30:46.707Z,101149.09
2019-04-29T17:33:27.766Z,101150.34
2019-04-29T17:35:15.680Z,101138.91
2019-04-29T17:35:54.364Z,101151.16
2019-04-29T17:38:24.096Z,101155.99
2019-04-29T17:40:53.638Z,101159.97
2019-04-29T17:43:27.506Z,101163.98
2019-04-29T17:46:07.588Z,101160.89
2019-04-29T17:48:38.888Z,101157.72
2019-04-29T17:51:11.770Z,101155.00
2019-04-29T17:53:46.051Z,101152.33
2019-04-29T17:56:24.865Z,101157.62
2019-04-29T17:58:58.253Z,101161.12
2019-04-29T18:01:46.923Z,101167.67
2019-04-29T18:04:23.584Z,101171.16
2019-04-29T18:07:08.976Z,101173.80
2019-04-29T18:09:44.974Z,101180.76
2019-04-29T18:12:17.769Z,101186.84
2019-04-29T18:14:48.404Z,101182.64
2019-04-29T18:17:27.236Z,101189.22
2019-04-29T18:19:55.377Z,101196.20
2019-04-29T18:22:44.658Z,101193.08
2019-04-29T18:25:15.959Z,101200.52
2019-04-29T18:27:49.069Z,101196.88
2019-04-29T18:30:34.645Z,101213.13
2019-04-29T18:32:50.739Z,101206.78
2019-04-29T18:35:20.582Z,101212.88
2019-04-29T18:37:50.063Z,101212.35
2019-04-29T18:40:20.169Z,101212.69
2019-04-29T18:42:50.047Z,101214.30
2019-04-29T18:45:19.572Z,101222.63
2019-04-29T18:47:49.086Z,101221.19
2019-04-29T18:50:19.177Z,101227.70
2019-04-29T18:52:48.631Z,101228.06
2019-04-29T18:55:18.121Z,101223.57
2019-04-29T18:57:47.664Z,101228.83
2019-04-29T19:00:19.865Z,101237.56
2019-04-29T19:02:57.052Z,101240.64
2019-04-29T19:05:35.439Z,101240.99
2019-04-29T19:08:12.345Z,101244.44
2019-04-29T19:10:37.437Z,101242.12
2019-04-29T19:13:12.622Z,101245.16
2019-04-29T19:15:39.989Z,101246.87
2019-04-29T19:18:12.473Z,101249.48
2019-04-29T19:20:40.681Z,101247.67
2019-04-29T19:23:10.533Z,101247.73
2019-04-29T19:25:41.530Z,101251.73
2019-04-29T19:28:14.274Z,101257.48
2019-04-29T19:30:45.117Z,101254.88
2019-04-29T19:33:15.183Z,101251.91
2019-04-29T19:35:45.214Z,101256.83
2019-04-29T19:38:15.810Z,101260.48
2019-04-29T19:40:45.668Z,101262.33
2019-04-29T19:43:18.898Z,101256.63
2019-04-29T19:45:49.117Z,101258.39
2019-04-29T19:48:17.863Z,101264.59
2019-04-29T19:50:51.640Z,101263.34
2019-04-29T19:53:18.587Z,101263.44
2019-04-29T19:56:01.026Z,101270.13
2019-04-29T19:58:28.506Z,101266.66
2019-04-29T20:00:52.126Z,101273.31
2019-04-29T20:03:26.574Z,101269.28
2019-04-29T20:06:08.449Z,101266.63
2019-04-29T20:08:51.197Z,101270.23
2019-04-29T20:11:12.369Z,101273.87
2019-04-29T20:13:40.364Z,101278.38
2019-04-29T20:16:39.802Z,101275.81
2019-04-29T20:19:16.241Z,101277.68
2019-04-29T20:21:43.306Z,101279.05
2019-04-29T20:24:15.621Z,101276.39
2019-04-29T20:26:46.647Z,101277.61
2019-04-29T20:29:16.088Z,101277.06
2019-04-29T20:31:51.546Z,101278.87
2019-04-29T20:34:23.768Z,101279.34
2019-04-29T20:36:48.397Z,101281.52
2019-04-29T20:39:23.035Z,101280.22
2019-04-29T20:41:49.364Z,101278.01
2019-04-29T20:44:19.349Z,101288.22
2019-04-29T20:47:12.951Z,101286.05
2019-04-29T20:49:20.516Z,101282.06
2019-04-29T20:51:52.739Z,101285.02
2019-04-29T20:54:25.704Z,101290.78
2019-04-29T20:57:02.885Z,101289.59
2019-04-29T20:59:26.613Z,101296.48
2019-04-29T21:02:11.286Z,101287.31
2019-04-29T21:04:38.463Z,101289.67
2019-04-29T21:07:03.259Z,101298.13
2019-04-29T21:09:32.958Z,101295.06
2019-04-29T21:12:04.163Z,101299.62
2019-04-29T21:14:41.407Z,101308.17
2019-04-29T21:17:11.363Z,101305.38
2019-04-29T21:19:40.936Z,101304.72
2019-04-29T21:22:12.934Z,101306.31
2019-04-29T21:24:41.873Z,101310.09
2019-04-29T21:27:15.932Z,101309.06
2019-04-29T21:29:42.683Z,101311.13
2019-04-29T21:32:12.290Z,101306.58
2019-04-29T21:34:45.152Z,101302.94
2019-04-29T21:37:16.404Z,101306.70
2019-04-29T21:39:47.478Z,101308.28
2019-04-29T21:42:36.677Z,101312.16
2019-04-29T21:45:09.003Z,101311.98
2019-04-29T21:47:44.976Z,101309.66
2019-04-29T21:50:10.066Z,101312.58
2019-04-29T21:52:39.867Z,101311.12
2019-04-29T21:55:09.552Z,101315.81
2019-04-29T21:57:38.982Z,101315.29
2019-04-29T22:00:10.937Z,101317.76
2019-04-29T22:02:46.621Z,101321.16
2019-04-29T22:05:14.767Z,101317.36
2019-04-29T22:07:47.477Z,101319.89
2019-04-29T22:10:19.943Z,101320.62
2019-04-29T22:12:50.969Z,101325.30
2019-04-29T22:15:29.757Z,101321.64
2019-04-29T22:17:56.380Z,101321.41
2019-04-29T22:20:21.750Z,101334.39
2019-04-29T22:22:51.367Z,101335.44
2019-04-29T22:25:21.162Z,101340.03
2019-04-29T22:27:50.622Z,101341.12
2019-04-29T22:30:20.510Z,101336.55
2019-04-29T22:32:51.867Z,101338.69
2019-04-29T22:35:21.421Z,101335.47
2019-04-29T22:37:50.979Z,101335.69
2019-04-29T22:40:20.544Z,101334.24
2019-04-29T22:43:04.689Z,101338.48
2019-04-29T22:45:29.510Z,101344.88
2019-04-29T22:48:14.390Z,101345.53
2019-04-29T22:50:33.610Z,101343.95
2019-04-29T22:53:07.374Z,101345.97
2019-04-29T22:55:38.754Z,101344.52
2019-04-29T22:58:09.761Z,101347.85
2019-04-29T23:00:37.491Z,101345.95
2019-04-29T23:03:07.068Z,101347.64
2019-04-29T23:05:37.854Z,101355.01
2019-04-29T23:08:07.476Z,101348.28
2019-04-29T23:10:36.904Z,101348.97
2019-04-29T23:13:06.442Z,101349.61
2019-04-29T23:15:35.981Z,101355.20
2019-04-29T23:18:06.442Z,101351.11
2019-04-29T23:20:43.099Z,101348.35
2019-04-29T23:23:15.669Z,101348.63
2019-04-29T23:25:52.785Z,101348.03
2019-04-29T23:28:26.441Z,101346.62
2019-04-29T23:30:53.555Z,101351.34
2019-04-29T23:33:24.138Z,101344.17
2019-04-29T23:35:55.980Z,101342.30
2019-04-29T23:38:25.765Z,101343.02
2019-04-29T23:40:56.409Z,101334.12
2019-04-29T23:43:28.431Z,101334.44
2019-04-29T23:46:00.537Z,101335.47
2019-04-29T23:48:38.874Z,101339.68
2019-04-29T23:50:59.403Z,101329.46
2019-04-29T23:53:28.873Z,101331.09
2019-04-29T23:56:00.234Z,101336.58
2019-04-29T23:58:38.551Z,101333.70
